Time;durP1;ratioP1;P1;durP2;ratioP2;P2;SDS_P1;SDS_P2;PMS_P1;PMS_P2;Temp;Humidity;BMP_temperature;BMP_pressure;BME280_temperature;BME280_humidity;BME280_pressure;Samples;Min_cycle;Max_cycle;Signal;HPM_P1;HPM_P2
2024/01/08 00:00:29;;;;;;;11.67;4.93;;;;;;;-16.66;43.46;101251.56;5097394;28;20039;-73
2024/01/08 00:02:55;;;;;;;10.87;4.47;;;;;;;-16.56;42.79;101257.69;5100787;28;20050;-72
2024/01/08 00:05:20;;;;;;;11.57;4.80;;;;;;;-16.52;43.26;101247.41;5080983;28;20146;-73
2024/01/08 00:07:47;;;;;;;10.73;4.40;;;;;;;-16.60;43.51;101226.53;5063530;28;20062;-73
2024/01/08 00:10:13;;;;;;;11.47;5.63;;;;;;;-16.36;42.73;101280.94;5097833;28;20043;-73
2024/01/08 00:12:38;;;;;;;11.30;5.47;;;;;;;-16.26;43.38;101280.47;5097195;28;20046;-75
2024/01/08 00:15:05;;;;;;;13.40;4.63;;;;;;;-16.46;42.92;101229.78;5076993;28;20101;-74
2024/01/08 00:17:32;;;;;;;13.30;5.47;;;;;;;-15.98;43.74;101280.38;5084367;28;20032;-73
2024/01/08 00:19:58;;;;;;;15.03;5.37;;;;;;;-15.87;43.51;101307.53;5101477;28;20126;-72
2024/01/08 00:22:24;;;;;;;14.63;5.73;;;;;;;-15.83;42.73;101281.31;5081846;28;20043;-73
2024/01/08 00:24:52;;;;;;;15.10;5.67;;;;;;;-15.81;43.63;101288.28;5083556;28;20042;-72
2024/01/08 00:27:18;;;;;;;17.10;5.97;;;;;;;-15.78;43.95;101293.66;5080403;28;20051;-72
2024/01/08 00:29:44;;;;;;;12.37;5.00;;;;;;;-15.71;43.62;101274.38;5069488;28;20040;-70
2024/01/08 00:32:10;;;;;;;16.47;5.40;;;;;;;-15.67;42.70;101274.03;5084121;28;20050;-72
2024/01/08 00:34:37;;;;;;;15.57;5.57;;;;;;;-16.05;43.42;101213.91;5102306;28;20065;-74
2024/01/08 00:37:03;;;;;;;18.10;5.50;;;;;;;-15.67;43.45;101269.06;5081619;28;20084;-72
2024/01/08 00:39:29;;;;;;;14.90;5.50;;;;;;;-15.71;43.35;101259.41;5101833;28;20083;-74
2024/01/08 00:41:55;;;;;;;10.60;4.67;;;;;;;-15.69;44.12;101268.88;5064691;28;20051;-71
2024/01/08 00:44:21;;;;;;;12.77;5.00;;;;;;;-15.67;43.03;101281.53;5082525;28;20053;-73
2024/01/08 00:46:47;;;;;;;13.17;4.67;;;;;;;-15.92;43.67;101248.69;5081480;28;20490;-73
2024/01/08 00:49:13;;;;;;;9.77;4.97;;;;;;;-16.04;43.61;101228.16;5080189;28;20130;-72
2024/01/08 00:51:40;;;;;;;17.87;5.20;;;;;;;-15.69;43.29;101276.38;5066099;28;20138;-73
2024/01/08 00:54:06;;;;;;;12.87;4.50;;;;;;;-15.62;43.33;101270.50;5096810;28;20043;-74
2024/01/08 00:56:32;;;;;;;14.57;5.50;;;;;;;-15.55;43.87;101277.97;5084293;28;20039;-73
2024/01/08 00:58:58;;;;;;;11.10;4.67;;;;;;;-15.90;44.23;101244.78;5099682;28;21185;-73
2024/01/08 01:01:26;;;;;;;14.60;4.77;;;;;;;-15.61;43.15;101283.16;5101652;28;20038;-72
2024/01/08 01:03:52;;;;;;;13.63;4.70;;;;;;;-15.58;44.28;101292.63;5100683;28;20067;-74
2024/01/08 01:06:21;;;;;;;12.00;4.20;;;;;;;-15.78;43.76;101241.22;5083010;28;20587;-74
2024/01/08 01:08:48;;;;;;;13.80;5.03;;;;;;;-15.73;44.42;101250.84;5098380;28;20039;-75
2024/01/08 01:11:17;;;;;;;7.73;4.47;;;;;;;-16.04;43.32;101227.28;5050576;28;20043;-72
2024/01/08 01:13:43;;;;;;;14.33;5.50;;;;;;;-15.75;43.88;101288.13;5065465;28;20040;-74
2024/01/08 01:16:09;;;;;;;14.73;5.23;;;;;;;-15.73;44.42;101276.72;5085214;28;20092;-73
2024/01/08 01:18:36;;;;;;;12.10;3.83;;;;;;;-15.93;44.18;101239.44;5066434;28;20043;-74
2024/01/08 01:21:02;;;;;;;10.43;3.80;;;;;;;-15.62;44.76;101283.84;5069621;28;20042;-73
2024/01/08 01:23:28;;;;;;;12.07;3.67;;;;;;;-15.77;43.89;101285.41;5050003;28;20517;-72
2024/01/08 01:25:54;;;;;;;11.10;4.63;;;;;;;-15.97;43.59;101249.75;5080047;28;20036;-73
2024/01/08 01:28:20;;;;;;;15.60;5.27;;;;;;;-15.86;44.86;101269.41;5062091;28;20039;-74
2024/01/08 01:30:46;;;;;;;13.93;5.17;;;;;;;-15.84;43.81;101275.44;5081850;28;20031;-72
2024/01/08 01:33:15;;;;;;;11.43;4.50;;;;;;;-15.85;44.63;101271.16;5099913;28;20055;-73
2024/01/08 01:35:42;;;;;;;10.53;4.83;;;;;;;-16.09;43.94;101230.13;5063468;28;20486;-74
2024/01/08 01:38:11;;;;;;;14.03;5.03;;;;;;;-15.69;43.91;101287.94;5099844;28;20028;-73
2024/01/08 01:40:37;;;;;;;16.93;4.47;;;;;;;-15.81;44.33;101265.81;5079418;28;20054;-73
2024/01/08 01:43:19;;;;;;;21.07;5.33;;;;;;;-15.97;44.38;101230.69;5065441;28;20078;-73
2024/01/08 01:45:45;;;;;;;11.47;4.57;;;;;;;-15.77;44.10;101262.06;5062398;28;20509;-72
2024/01/08 01:48:11;;;;;;;12.03;4.73;;;;;;;-15.68;44.10;101275.66;5068223;28;21694;-74
2024/01/08 01:50:38;;;;;;;14.10;4.30;;;;;;;-16.05;43.79;101206.44;5099989;28;20043;-73
2024/01/08 01:53:04;;;;;;;10.00;4.13;;;;;;;-15.83;43.54;101243.88;5082454;28;20038;-72
2024/01/08 01:55:30;;;;;;;13.17;4.60;;;;;;;-15.73;44.00;101268.31;5102100;28;20040;-74
2024/01/08 01:57:56;;;;;;;18.10;4.83;;;;;;;-15.68;45.01;101255.69;5066614;28;20444;-74
2024/01/08 02:00:22;;;;;;;10.43;4.27;;;;;;;-15.60;44.62;101254.09;5066724;28;20035;-74
2024/01/08 02:02:48;;;;;;;14.87;4.90;;;;;;;-15.52;44.17;101260.88;5084524;28;20977;-73
2024/01/08 02:05:15;;;;;;;11.30;5.37;;;;;;;-15.47;44.81;101269.81;5102254;28;20038;-72
2024/01/08 02:07:42;;;;;;;16.43;4.70;;;;;;;-15.48;43.88;101265.53;5057454;28;20035;-73
2024/01/08 02:10:08;;;;;;;12.30;4.70;;;;;;;-15.45;43.54;101277.50;5065459;28;20120;-72
2024/01/08 02:12:36;;;;;;;13.90;5.73;;;;;;;-15.64;43.55;101255.31;5101335;28;20071;-77
2024/01/08 02:15:04;;;;;;;11.20;4.63;;;;;;;-15.55;44.72;101265.50;5083109;28;20520;-70
2024/01/08 02:17:38;;;;;;;9.67;4.63;;;;;;;-15.96;45.04;101166.72;5100824;28;20031;-70
2024/01/08 02:20:05;;;;;;;17.63;5.00;;;;;;;-15.48;44.68;101250.53;5085944;28;20039;-71
2024/01/08 02:22:38;;;;;;;10.37;4.33;;;;;;;-15.84;44.70;101167.22;5067672;28;20035;-72
2024/01/08 02:25:05;;;;;;;10.03;4.70;;;;;;;-15.55;44.12;101203.09;5066603;28;20172;-70
2024/01/08 02:27:31;;;;;;;13.33;5.30;;;;;;;-15.20;44.18;101262.84;5084652;28;20039;-69
2024/01/08 02:29:57;;;;;;;11.00;4.20;;;;;;;-15.50;44.61;101241.97;5100111;28;20415;-70
2024/01/08 02:32:23;;;;;;;14.43;4.27;;;;;;;-15.78;44.50;101178.84;5102130;28;20126;-69
2024/01/08 02:34:49;;;;;;;21.23;5.20;;;;;;;-15.40;45.06;101235.56;5081273;28;20036;-70
2024/01/08 02:37:15;;;;;;;15.40;5.17;;;;;;;-15.34;44.85;101236.31;5101055;28;20481;-71
2024/01/08 02:39:41;;;;;;;14.97;5.40;;;;;;;-15.34;45.17;101234.69;5084729;28;20042;-71
2024/01/08 02:42:07;;;;;;;12.87;4.87;;;;;;;-15.19;44.88;101250.56;5082575;28;20264;-73
2024/01/08 02:44:35;;;;;;;14.83;4.10;;;;;;;-15.17;44.39;101254.13;5083037;28;20048;-72
2024/01/08 02:47:01;;;;;;;12.17;4.37;;;;;;;-14.86;43.77;101279.28;5099572;28;20046;-70
2024/01/08 02:49:28;;;;;;;12.80;4.50;;;;;;;-15.07;44.49;101245.19;5067061;28;20124;-72
2024/01/08 02:51:54;;;;;;;12.53;4.37;;;;;;;-14.91;44.26;101278.75;5100881;28;20040;-71
2024/01/08 02:54:19;;;;;;;14.13;4.20;;;;;;;-15.13;44.27;101237.00;5082289;28;20047;-71
2024/01/08 02:56:46;;;;;;;13.07;5.30;;;;;;;-14.97;44.43;101272.13;5082914;28;20061;-72
2024/01/08 02:59:11;;;;;;;15.80;5.33;;;;;;;-15.04;44.35;101263.03;5082454;28;20035;-71
2024/01/08 03:01:38;;;;;;;8.27;4.60;;;;;;;-15.06;44.92;101264.47;5099486;28;20035;-71
2024/01/08 03:04:04;;;;;;;17.40;4.73;;;;;;;-15.18;44.08;101247.34;5052081;28;20035;-70
2024/01/08 03:06:30;;;;;;;16.67;6.13;;;;;;;-15.50;43.82;101192.03;5100508;28;20032;-71
2024/01/08 03:08:56;;;;;;;16.87;5.40;;;;;;;-15.20;44.70;101257.88;5081661;28;20096;-73
2024/01/08 03:11:22;;;;;;;14.87;5.83;;;;;;;-15.40;43.74;101258.03;5080416;28;20061;-71
2024/01/08 03:13:48;;;;;;;16.50;6.00;;;;;;;-15.47;45.03;101252.31;5066494;28;20066;-71
2024/01/08 03:16:18;;;;;;;22.87;7.43;;;;;;;-15.59;44.86;101255.88;5066734;28;20067;-72
2024/01/08 03:18:46;;;;;;;29.73;12.77;;;;;;;-15.81;44.10;101247.44;5081016;28;20463;-71
2024/01/08 03:21:12;;;;;;;19.10;7.73;;;;;;;-16.33;44.73;101190.69;5081256;28;20039;-71
2024/01/08 03:23:38;;;;;;;19.77;7.10;;;;;;;-16.06;44.71;101260.44;5068681;28;20084;-71
2024/01/08 03:26:05;;;;;;;15.80;6.10;;;;;;;-16.36;45.04;101217.75;5080454;28;20447;-70
2024/01/08 03:28:31;;;;;;;22.87;7.47;;;;;;;-16.36;44.59;101242.69;5063839;28;20059;-70
2024/01/08 03:30:57;;;;;;;19.60;7.77;;;;;;;-16.55;45.35;101229.56;5081065;28;20085;-71
2024/01/08 03:33:23;;;;;;;20.67;6.40;;;;;;;-16.36;44.13;101261.00;5081463;28;20457;-71
2024/01/08 03:35:49;;;;;;;17.63;6.47;;;;;;;-16.71;45.17;101215.25;5082282;28;20073;-71
2024/01/08 03:38:15;;;;;;;22.60;6.90;;;;;;;-16.53;44.32;101243.13;5100499;28;20043;-71
2024/01/08 03:40:41;;;;;;;18.00;7.53;;;;;;;-16.82;45.75;101201.50;5064692;28;20039;-71
2024/01/08 03:43:07;;;;;;;18.53;7.40;;;;;;;-16.62;44.96;101244.47;5051812;28;21034;-71
2024/01/08 03:45:33;;;;;;;20.73;7.37;;;;;;;-16.84;45.27;101219.44;5064839;28;20117;-71
2024/01/08 03:47:59;;;;;;;26.60;7.67;;;;;;;-16.95;44.42;101209.81;5101483;28;20036;-71
2024/01/08 03:50:26;;;;;;;18.27;7.83;;;;;;;-17.33;44.49;101160.47;5091125;28;20043;-70
2024/01/08 03:52:52;;;;;;;19.63;6.97;;;;;;;-16.78;45.22;101251.69;5088851;28;20075;-72
2024/01/08 03:55:18;;;;;;;22.77;6.47;;;;;;;-16.83;44.14;101266.06;5056772;28;20039;-71
2024/01/08 03:57:44;;;;;;;20.17;6.60;;;;;;;-16.92;44.89;101245.91;5089190;28;20441;-70
2024/01/08 04:00:11;;;;;;;17.77;5.93;;;;;;;-16.99;45.02;101219.38;5089704;28;20039;-71
2024/01/08 04:02:41;;;;;;;19.17;7.10;;;;;;;-16.88;45.40;101232.25;5073842;28;20096;-71
2024/01/08 04:05:11;;;;;;;18.90;6.07;;;;;;;-16.70;45.38;101264.38;5089487;28;20043;-71
2024/01/08 04:07:38;;;;;;;18.07;7.10;;;;;;;-16.70;44.96;101265.97;5088416;28;20043;-71
2024/01/08 04:10:07;;;;;;;25.23;7.83;;;;;;;-16.70;44.43;101264.38;5073830;28;20082;-71
2024/01/08 04:12:36;;;;;;;22.50;7.73;;;;;;;-16.97;44.07;101204.63;5106954;28;20040;-71
2024/01/08 04:15:03;;;;;;;17.93;8.03;;;;;;;-16.63;45.13;101250.16;5073152;28;20058;-71
2024/01/08 04:17:31;;;;;;;17.70;7.10;;;;;;;-16.84;44.15;101216.94;5107098;28;20501;-72
2024/01/08 04:19:57;;;;;;;24.23;9.13;;;;;;;-17.01;44.89;101207.47;5106954;28;20038;-71
2024/01/08 04:22:26;;;;;;;19.77;7.47;;;;;;;-17.00;45.13;101227.56;5087532;28;20031;-70
2024/01/08 04:24:52;;;;;;;34.00;10.13;;;;;;;-16.94;45.07;101236.47;5074142;28;20059;-71
2024/01/08 04:27:18;;;;;;;23.87;9.30;;;;;;;-16.93;44.49;101229.16;5056749;28;20096;-70
2024/01/08 04:29:47;;;;;;;28.00;8.90;;;;;;;-17.03;45.25;101222.19;5106882;28;20043;-71
2024/01/08 04:32:13;;;;;;;25.27;10.20;;;;;;;-17.07;44.83;101224.13;5106389;28;20125;-71
2024/01/08 04:34:39;;;;;;;29.63;8.40;;;;;;;-17.08;44.33;101228.19;5073559;28;20140;-71
2024/01/08 04:37:05;;;;;;;29.10;7.73;;;;;;;-17.30;44.72;101205.63;5106307;28;20124;-72
2024/01/08 04:39:31;;;;;;;26.77;7.77;;;;;;;-17.26;45.65;101211.91;5073943;28;20036;-72
2024/01/08 04:41:57;;;;;;;20.40;6.60;;;;;;;-17.20;44.53;101224.22;5105392;28;20612;-71
2024/01/08 04:44:23;;;;;;;15.43;6.27;;;;;;;-17.32;44.55;101238.53;5086401;28;20050;-71
2024/01/08 04:46:49;;;;;;;20.17;7.10;;;;;;;-17.34;45.01;101237.44;5087091;28;20032;-71
2024/01/08 04:49:16;;;;;;;19.90;7.50;;;;;;;-17.38;45.25;101230.28;5089903;28;20036;-71
2024/01/08 04:51:42;;;;;;;18.73;6.50;;;;;;;-17.48;45.08;101213.31;5087565;28;20116;-71
2024/01/08 04:54:08;;;;;;;15.40;5.60;;;;;;;-17.63;45.18;101192.38;5087441;28;20506;-70
2024/01/08 04:56:35;;;;;;;25.87;8.53;;;;;;;-17.67;44.95;101201.06;5087555;28;20129;-72
2024/01/08 04:59:02;;;;;;;17.77;7.10;;;;;;;-17.73;44.80;101201.22;5073189;28;20039;-71
2024/01/08 05:01:35;;;;;;;25.07;8.70;;;;;;;-17.45;45.17;101218.69;5082430;28;20059;-71
2024/01/08 05:04:01;;;;;;;20.20;8.50;;;;;;;-17.34;45.57;101225.91;5067299;28;20489;-71
2024/01/08 05:06:27;;;;;;;23.10;7.23;;;;;;;-17.67;44.98;101166.25;5066004;28;20043;-71
2024/01/08 05:08:53;;;;;;;26.77;7.60;;;;;;;-18.04;45.32;101111.97;5083790;28;20036;-72
2024/01/08 05:11:19;;;;;;;29.40;8.67;;;;;;;-17.30;45.52;101229.66;5085391;28;20036;-71
2024/01/08 05:13:45;;;;;;;17.10;6.67;;;;;;;-17.44;45.15;101203.97;5103627;28;20500;-71
2024/01/08 05:16:11;;;;;;;18.47;7.90;;;;;;;-17.74;45.64;101163.69;5069552;28;20042;-72
2024/01/08 05:18:37;;;;;;;22.30;8.33;;;;;;;-17.46;45.65;101189.50;5084532;28;20047;-72
2024/01/08 05:21:07;;;;;;;25.37;7.73;;;;;;;-17.67;45.59;101160.38;5069037;28;20039;-72
2024/01/08 05:23:33;;;;;;;20.83;8.17;;;;;;;-17.31;45.13;101226.25;5103357;28;20032;-72
2024/01/08 05:26:00;;;;;;;30.70;8.57;;;;;;;-17.53;45.42;101194.41;5070469;28;20115;-71
2024/01/08 05:28:30;;;;;;;20.07;7.43;;;;;;;-17.54;45.73;101197.66;5070448;28;20071;-71
2024/01/08 05:30:57;;;;;;;24.87;7.27;;;;;;;-17.72;45.01;101189.66;5068342;28;20104;-72
2024/01/08 05:33:23;;;;;;;17.60;7.17;;;;;;;-17.57;45.41;101225.50;5100438;28;20040;-71
2024/01/08 05:35:49;;;;;;;21.70;7.40;;;;;;;-17.53;45.17;101237.63;5103036;28;20566;-73
2024/01/08 05:38:15;;;;;;;15.23;6.33;;;;;;;-17.61;45.82;101226.72;5103226;28;20044;-72
2024/01/08 05:40:41;;;;;;;20.87;7.93;;;;;;;-17.50;45.63;101244.56;5066604;28;20107;-72
2024/01/08 05:43:07;;;;;;;14.83;5.67;;;;;;;-17.57;46.13;101213.97;5102253;28;20490;-71
2024/01/08 05:45:33;;;;;;;19.33;6.83;;;;;;;-17.37;45.27;101251.97;5068819;28;20221;-71
2024/01/08 05:47:59;;;;;;;20.53;6.23;;;;;;;-17.43;45.47;101242.16;5051300;28;20044;-71
2024/01/08 05:50:27;;;;;;;15.67;6.50;;;;;;;-17.54;45.61;101240.81;5083660;28;20051;-72
2024/01/08 05:52:56;;;;;;;18.47;5.40;;;;;;;-17.48;46.02;101258.09;5051140;28;20047;-69
2024/01/08 05:55:23;;;;;;;18.13;6.00;;;;;;;-17.91;45.21;101184.84;5063854;28;20093;-69
2024/01/08 05:57:52;;;;;;;17.17;6.47;;;;;;;-17.74;45.18;101231.75;5066624;28;20082;-69
2024/01/08 06:00:18;;;;;;;14.50;5.73;;;;;;;-18.07;45.56;101172.13;5066616;28;20107;-70
2024/01/08 06:02:44;;;;;;;15.87;5.67;;;;;;;-17.61;45.13;101256.59;5102177;28;20039;-70
2024/01/08 06:05:13;;;;;;;19.03;7.80;;;;;;;-18.35;45.55;101132.94;5069010;28;20044;-70
2024/01/08 06:07:40;;;;;;;18.13;6.27;;;;;;;-17.87;44.96;101201.97;5065668;28;20126;-71
2024/01/08 06:10:09;;;;;;;14.37;5.83;;;;;;;-17.59;45.59;101247.72;5065285;28;20040;-69
2024/01/08 06:12:35;;;;;;;13.87;5.47;;;;;;;-17.30;45.56;101219.69;5081638;28;20486;-71
2024/01/08 06:15:02;;;;;;;12.97;6.47;;;;;;;-16.60;45.27;101205.69;5102325;28;20481;-69
2024/01/08 06:17:36;;;;;;;12.60;5.43;;;;;;;-15.75;44.78;101221.59;5101921;28;20063;-71
2024/01/08 06:20:02;;;;;;;17.30;5.97;;;;;;;-14.95;44.79;101231.63;5082836;28;20504;-70
2024/01/08 06:22:29;;;;;;;16.77;6.77;;;;;;;-14.82;44.64;101143.97;5049902;28;20047;-71
2024/01/08 06:24:55;;;;;;;17.57;6.77;;;;;;;-13.84;44.57;101169.72;5069329;28;20046;-70
2024/01/08 06:27:23;;;;;;;16.37;6.37;;;;;;;-13.11;43.72;101185.91;5068442;28;20040;-71
2024/01/08 06:29:53;;;;;;;20.83;6.40;;;;;;;-12.66;43.47;101145.50;5065265;28;20137;-71
2024/01/08 06:32:20;;;;;;;19.20;6.47;;;;;;;-12.04;43.06;101120.88;5070507;28;20047;-71
2024/01/08 06:34:47;;;;;;;19.43;6.77;;;;;;;-11.22;42.99;101146.59;5082772;28;20039;-73
2024/01/08 06:37:17;;;;;;;17.73;6.03;;;;;;;-11.05;41.84;101120.63;5060813;28;20035;-71
2024/01/08 06:39:45;;;;;;;19.90;6.87;;;;;;;-10.49;42.43;101084.09;5066231;28;20038;-71
2024/01/08 06:42:11;;;;;;;21.50;7.70;;;;;;;-8.81;42.18;101207.91;5100945;28;20089;-72
2024/01/08 06:44:37;;;;;;;19.65;7.85;;;;;;;-8.24;41.50;101184.34;5082408;28;20475;-72
2024/01/08 06:47:04;;;;;;;25.95;8.27;;;;;;;-7.47;40.52;101178.34;5084317;28;20036;-71
2024/01/08 06:49:29;;;;;;;19.00;7.80;;;;;;;-6.67;40.19;101203.56;5083040;28;20067;-73
2024/01/08 06:51:55;;;;;;;18.50;7.65;;;;;;;-6.03;39.68;101183.31;5102214;28;20154;-71
2024/01/08 06:54:22;;;;;;;20.27;8.52;;;;;;;-5.35;39.59;101168.28;5083282;28;20044;-71
2024/01/08 06:56:51;;;;;;;16.52;7.25;;;;;;;-4.74;38.47;101181.34;5098830;28;20085;-77
2024/01/08 06:59:18;;;;;;;18.02;7.55;;;;;;;-4.14;37.96;101165.41;5082369;28;20109;-73
2024/01/08 07:01:45;;;;;;;20.33;8.52;;;;;;;-3.69;37.73;101112.63;5064566;28;20084;-70
2024/01/08 07:04:11;;;;;;;20.70;8.40;;;;;;;-2.55;37.05;101159.31;5063715;28;20047;-71
2024/01/08 07:06:37;;;;;;;19.05;8.30;;;;;;;-1.99;36.48;101162.88;5065016;28;20039;-71
2024/01/08 07:09:04;;;;;;;19.48;8.82;;;;;;;-1.55;35.27;101179.22;5082462;28;20089;-72
2024/01/08 07:11:32;;;;;;;18.13;8.93;;;;;;;-1.39;35.50;101142.72;5082697;28;20052;-72
2024/01/08 07:14:01;;;;;;;20.15;8.90;;;;;;;-0.86;34.09;101162.06;5102258;28;20046;-72
2024/01/08 07:16:27;;;;;;;20.02;9.10;;;;;;;-0.46;33.88;101164.44;5082415;28;20085;-73
2024/01/08 07:18:53;;;;;;;17.10;8.40;;;;;;;-0.27;33.72;101101.50;5082799;28;20085;-72
2024/01/08 07:21:20;;;;;;;20.70;9.65;;;;;;;0.47;32.93;101143.06;5086294;28;20039;-72
2024/01/08 07:23:48;;;;;;;17.83;9.20;;;;;;;0.76;32.12;101092.47;5065465;28;20124;-72
2024/01/08 07:26:14;;;;;;;19.65;9.85;;;;;;;0.84;31.69;101037.34;5082286;28;20031;-71
2024/01/08 07:28:45;;;;;;;19.10;9.07;;;;;;;1.82;30.79;101138.72;5083034;28;20039;-73
2024/01/08 07:31:12;;;;;;;20.38;9.15;;;;;;;1.88;30.14;101087.63;5085146;28;20132;-70
2024/01/08 07:33:39;;;;;;;20.80;9.00;;;;;;;2.45;29.56;101151.91;5064519;28;20062;-71
2024/01/08 07:36:06;;;;;;;20.38;10.15;;;;;;;2.61;28.86;101132.94;5081132;28;20031;-72
2024/01/08 07:38:32;;;;;;;19.55;10.07;;;;;;;2.78;28.84;101096.81;5065214;28;20055;-71
2024/01/08 07:40:59;;;;;;;25.48;11.10;;;;;;;3.08;27.74;101112.72;5066790;28;20433;-72
2024/01/08 07:43:26;;;;;;;22.70;11.00;;;;;;;3.27;27.72;101114.34;5099283;28;20071;-72
2024/01/08 07:45:59;;;;;;;23.90;12.50;;;;;;;3.09;27.41;101065.56;5064926;28;20043;-72
2024/01/08 07:48:26;;;;;;;20.58;10.45;;;;;;;3.88;27.18;101127.09;5080811;28;20040;-71
2024/01/08 07:50:52;;;;;;;19.45;10.48;;;;;;;4.42;27.17;101146.31;5101602;28;20056;-72
2024/01/08 07:53:18;;;;;;;21.88;10.27;;;;;;;4.30;25.75;101136.44;5081072;28;20039;-72
2024/01/08 07:55:44;;;;;;;20.88;9.85;;;;;;;4.33;25.56;101111.66;5074445;28;20043;-72
2024/01/08 07:58:15;;;;;;;19.85;10.68;;;;;;;4.36;25.28;101109.19;5079710;28;20054;-73
2024/01/08 08:00:42;;;;;;;20.17;10.57;;;;;;;3.74;25.41;100980.66;5084399;28;20119;-72
2024/01/08 08:03:08;;;;;;;22.52;10.70;;;;;;;5.14;24.60;101117.09;5047792;28;20453;-71
2024/01/08 08:05:35;;;;;;;21.48;12.02;;;;;;;5.72;24.72;101131.06;5080905;28;20051;-73
2024/01/08 08:08:01;;;;;;;21.35;11.20;;;;;;;5.67;24.17;101113.66;5067037;28;20047;-72
2024/01/08 08:10:28;;;;;;;21.95;10.95;;;;;;;6.10;23.88;101117.63;5081613;28;20189;-72
2024/01/08 08:12:54;;;;;;;22.85;12.23;;;;;;;6.43;23.51;101061.69;5099985;28;20245;-73
2024/01/08 08:15:20;;;;;;;21.35;10.98;;;;;;;7.33;22.92;101093.41;5083930;28;20040;-73
2024/01/08 08:17:47;;;;;;;24.52;11.48;;;;;;;7.76;22.50;101108.22;5098922;28;20110;-73
2024/01/08 08:20:13;;;;;;;24.42;12.30;;;;;;;7.73;21.70;101090.91;5081224;28;20115;-74
2024/01/08 08:22:39;;;;;;;23.88;12.68;;;;;;;7.33;22.29;101066.66;5081029;28;20036;-73
2024/01/08 08:25:06;;;;;;;19.38;10.52;;;;;;;7.72;22.38;101062.38;5081707;28;20058;-73
2024/01/08 08:27:35;;;;;;;26.20;11.75;;;;;;;8.19;21.86;101069.44;5050945;28;20040;-73
2024/01/08 08:30:01;;;;;;;22.27;12.15;;;;;;;8.08;21.30;101064.03;5084187;28;20040;-72
2024/01/08 08:32:30;;;;;;;22.08;11.75;;;;;;;8.11;21.11;100982.00;5081766;28;20206;-73
2024/01/08 08:34:56;;;;;;;24.88;12.65;;;;;;;8.84;21.10;101056.03;5051388;28;20047;-73
2024/01/08 08:37:22;;;;;;;23.58;13.07;;;;;;;9.01;21.25;101033.00;5085873;28;20051;-72
2024/01/08 08:39:48;;;;;;;22.33;11.63;;;;;;;8.92;20.57;101009.47;5070657;28;20040;-74
2024/01/08 08:42:14;;;;;;;22.73;11.98;;;;;;;9.06;21.02;101027.00;5104362;28;20040;-71
2024/01/08 08:44:40;;;;;;;21.13;12.13;;;;;;;9.76;20.48;101049.75;5086671;28;20040;-72
2024/01/08 08:47:06;;;;;;;21.55;12.13;;;;;;;9.97;20.22;101017.09;5086620;28;20417;-71
2024/01/08 08:49:32;;;;;;;22.08;11.50;;;;;;;9.97;19.67;100994.56;5102632;28;20119;-72
2024/01/08 08:51:59;;;;;;;23.60;12.68;;;;;;;9.17;19.66;100901.69;5052117;28;20139;-72
2024/01/08 08:54:25;;;;;;;20.67;12.05;;;;;;;8.77;19.25;100952.09;5086343;28;20064;-72
2024/01/08 08:56:51;;;;;;;19.05;11.07;;;;;;;8.21;19.58;100894.03;5067744;28;20130;-73
2024/01/08 08:59:17;;;;;;;18.58;11.02;;;;;;;9.55;19.46;101033.00;5083463;28;20122;-73
2024/01/08 09:01:43;;;;;;;19.77;10.73;;;;;;;9.60;19.23;101022.66;5083935;28;20047;-70
2024/01/08 09:04:10;;;;;;;21.45;11.23;;;;;;;9.48;18.58;100994.78;5070507;28;20462;-72
2024/01/08 09:06:36;;;;;;;19.67;11.90;;;;;;;9.88;18.47;101015.25;5102769;28;20650;-72
2024/01/08 09:09:03;;;;;;;18.42;11.25;;;;;;;9.47;18.59;100975.72;5084912;28;20554;-71
2024/01/08 09:11:29;;;;;;;19.67;10.95;;;;;;;9.60;18.61;100965.50;5085515;28;20123;-71
2024/01/08 09:13:56;;;;;;;18.65;11.05;;;;;;;9.66;18.57;100988.97;5085123;28;20040;-72
2024/01/08 09:16:23;;;;;;;19.35;11.15;;;;;;;9.54;18.58;100931.63;5069945;28;20046;-71
2024/01/08 09:18:49;;;;;;;18.77;11.45;;;;;;;10.36;19.00;101002.81;5102897;28;20063;-72
2024/01/08 09:21:15;;;;;;;20.67;11.55;;;;;;;10.20;18.45;101009.56;5084599;28;20571;-73
2024/01/08 09:23:42;;;;;;;18.48;11.60;;;;;;;9.75;18.41;100952.69;5102029;28;20208;-72
2024/01/08 09:26:08;;;;;;;17.70;10.82;;;;;;;10.05;18.16;101002.44;5102450;28;20045;-71
2024/01/08 09:28:34;;;;;;;19.35;11.57;;;;;;;9.54;17.91;100952.41;5083307;28;20044;-74
2024/01/08 09:31:02;;;;;;;24.77;11.88;;;;;;;9.47;18.58;100983.50;5068280;28;20137;-74
2024/01/08 09:33:28;;;;;;;18.98;11.25;;;;;;;8.84;18.14;100912.44;5069156;28;20042;-72
2024/01/08 09:35:55;;;;;;;19.33;10.98;;;;;;;9.06;18.33;100972.47;5102084;28;20060;-73
2024/01/08 09:38:21;;;;;;;21.67;11.52;;;;;;;9.10;18.47;100980.34;5101818;28;20043;-79
2024/01/08 09:40:50;;;;;;;20.02;11.23;;;;;;;8.62;17.93;100969.16;5084679;28;20068;-77
2024/01/08 09:43:25;;;;;;;18.27;10.98;;;;;;;8.64;18.52;100977.84;5085418;28;20619;-74
2024/01/08 09:46:07;;;;;;;21.75;12.05;;;;;;;8.31;18.33;100999.66;5103321;28;20493;-76
2024/01/08 09:48:34;;;;;;;21.73;12.18;;;;;;;7.42;18.16;100895.94;5075221;28;20036;-74
2024/01/08 09:51:01;;;;;;;21.25;12.43;;;;;;;7.65;18.46;100944.75;5084092;28;20472;-75
2024/01/08 09:53:29;;;;;;;26.40;14.05;;;;;;;7.67;18.33;100958.63;5069770;28;20046;-65
2024/01/08 09:55:55;;;;;;;26.73;14.38;;;;;;;7.45;18.15;100915.84;5082313;28;20172;-72
2024/01/08 09:58:25;;;;;;;28.95;16.05;;;;;;;7.81;18.79;100957.22;5082330;28;20032;-66
2024/01/08 10:00:52;;;;;;;34.25;17.38;;;;;;;7.40;18.17;100952.00;5087149;28;20639;-65
2024/01/08 10:03:19;;;;;;;35.15;16.92;;;;;;;7.24;18.61;100959.41;5082335;28;20138;-65
2024/01/08 10:05:45;;;;;;;29.77;15.38;;;;;;;6.66;18.86;100938.16;5084209;28;20387;-64
2024/01/08 10:08:11;;;;;;;25.45;14.27;;;;;;;6.34;18.88;100863.25;5101143;28;20862;-65
2024/01/08 10:10:38;;;;;;;25.77;14.60;;;;;;;7.34;19.11;100913.03;5081292;28;20082;-69
2024/01/08 10:13:04;;;;;;;27.58;13.48;;;;;;;7.37;18.79;100869.94;5069458;28;20047;-66
2024/01/08 10:15:33;;;;;;;22.17;12.25;;;;;;;6.59;18.31;100942.31;5081268;28;20176;-67
2024/01/08 10:18:02;;;;;;;26.40;12.65;;;;;;;3.78;18.91;100899.25;5101737;28;20066;-70
2024/01/08 10:20:29;;;;;;;23.52;12.95;;;;;;;1.57;19.08;100945.06;5081958;28;20062;-70
2024/01/08 10:23:16;;;;;;;21.98;11.68;;;;;;;-0.77;20.28;100866.09;5067360;28;20089;-69
2024/01/08 10:25:53;;;;;;;26.17;12.73;;;;;;;-1.77;20.41;100911.53;5064934;28;20043;-69
2024/01/08 10:28:19;;;;;;;27.65;12.57;;;;;;;-2.86;21.30;100912.66;5085809;28;20046;-70
2024/01/08 10:30:45;;;;;;;27.80;12.65;;;;;;;-3.85;22.31;100902.06;5101779;28;20104;-70
2024/01/08 10:33:11;;;;;;;27.83;12.35;;;;;;;-4.47;22.45;100948.72;5081975;28;20134;-70
2024/01/08 10:35:40;;;;;;;29.77;12.90;;;;;;;-5.20;23.46;100956.28;5100939;28;20131;-68
2024/01/08 10:38:07;;;;;;;31.17;12.95;;;;;;;-5.95;24.02;100936.34;5065567;28;20028;-72
2024/01/08 10:40:33;;;;;;;29.15;12.27;;;;;;;-6.73;24.20;100896.66;5084887;28;20052;-74
2024/01/08 10:42:59;;;;;;;29.60;11.93;;;;;;;-6.99;24.81;100915.75;5101875;28;20066;-71
2024/01/08 10:45:25;;;;;;;29.83;11.95;;;;;;;-7.66;25.12;100871.63;5080476;28;20032;-72
2024/01/08 10:48:21;;;;;;;26.20;11.27;;;;;;;-7.63;25.63;100953.69;5065919;28;21222;-73
2024/01/08 10:50:52;;;;;;;26.27;12.02;;;;;;;-8.35;25.78;100885.38;5081576;28;20069;-73
2024/01/08 10:53:30;;;;;;;25.53;10.87;;;;;;;-8.33;26.12;100945.34;5066508;28;20406;-75
2024/01/08 10:55:58;;;;;;;27.80;11.05;;;;;;;-8.81;26.73;100915.16;5099446;28;20346;-72
2024/01/08 10:58:31;;;;;;;26.52;9.98;;;;;;;-8.99;27.36;100919.53;5098628;28;20604;-73
2024/01/08 11:00:57;;;;;;;21.67;9.38;;;;;;;-9.31;27.35;100889.81;5084584;28;20088;-73
2024/01/08 11:03:24;;;;;;;28.13;11.77;;;;;;;-9.48;27.79;100894.28;5102412;28;20164;-74
2024/01/08 11:05:51;;;;;;;24.40;10.02;;;;;;;-9.70;27.58;100904.97;5085032;28;20043;-72
2024/01/08 11:08:20;;;;;;;20.40;9.50;;;;;;;-10.50;27.75;100797.94;5082648;28;20130;-73
2024/01/08 11:10:46;;;;;;;26.80;10.13;;;;;;;-10.02;28.24;100918.03;5099027;28;20043;-72